createdAt,value
2018-10-11T00:02:17.807Z,17.60
2018-10-11T00:04:46.280Z,17.50
2018-10-11T00:07:14.864Z,17.60
2018-10-11T00:09:46.032Z,17.50
2018-10-11T00:12:14.720Z,17.50
2018-10-11T00:14:43.497Z,17.50
2018-10-11T00:17:12.703Z,17.50
2018-10-11T00:19:41.369Z,17.50
2018-10-11T00:22:09.814Z,17.50
2018-10-11T00:24:38.224Z,17.50
2018-10-11T00:27:08.315Z,17.50
2018-10-11T00:29:37.612Z,17.50
2018-10-11T00:32:06.278Z,17.50
2018-10-11T00:34:36.219Z,17.60
2018-10-11T00:37:04.719Z,17.50
2018-10-11T00:39:33.221Z,17.50
2018-10-11T00:42:01.789Z,17.60
2018-10-11T00:44:32.054Z,17.50
2018-10-11T00:47:04.114Z,17.50
2018-10-11T00:49:32.601Z,17.50
2018-10-11T00:52:02.370Z,17.50
2018-10-11T00:54:31.263Z,17.50
2018-10-11T00:56:59.677Z,17.50
2018-10-11T00:59:29.400Z,17.50
2018-10-11T01:02:00.301Z,17.50
2018-10-11T01:04:30.144Z,17.50
2018-10-11T01:06:58.688Z,17.50
2018-10-11T01:09:27.346Z,17.50
2018-10-11T01:11:55.854Z,17.50
2018-10-11T01:14:24.443Z,17.50
2018-10-11T01:16:52.866Z,17.50
2018-10-11T01:19:24.685Z,17.50
2018-10-11T01:21:53.505Z,17.50
2018-10-11T01:24:22.554Z,17.50
2018-10-11T01:26:50.965Z,17.50
2018-10-11T01:29:19.737Z,17.50
2018-10-11T01:31:52.323Z,17.50
2018-10-11T01:34:20.894Z,17.50
2018-10-11T01:36:50.921Z,17.50
2018-10-11T01:39:19.993Z,17.50
2018-10-11T01:41:49.721Z,17.50
2018-10-11T01:44:18.438Z,17.50
2018-10-11T01:46:52.218Z,17.50
2018-10-11T01:49:21.783Z,17.50
2018-10-11T01:51:50.404Z,17.50
2018-10-11T01:54:20.060Z,17.50
2018-10-11T01:56:52.495Z,17.50
2018-10-11T01:59:21.169Z,17.50
2018-10-11T02:01:49.984Z,17.50
2018-10-11T02:04:18.447Z,17.50
2018-10-11T02:06:46.923Z,17.50
2018-10-11T02:09:15.897Z,17.50
2018-10-11T02:11:44.391Z,17.50
2018-10-11T02:14:12.987Z,17.50
2018-10-11T02:16:41.528Z,17.50
2018-10-11T02:19:10.046Z,17.50
2018-10-11T02:21:38.681Z,17.50
2018-10-11T02:24:07.772Z,17.50
2018-10-11T02:26:36.540Z,17.50
2018-10-11T02:29:04.960Z,17.50
2018-10-11T02:31:34.499Z,17.50
2018-10-11T02:34:04.212Z,17.50
2018-10-11T02:36:32.810Z,17.50
2018-10-11T02:39:01.420Z,17.50
2018-10-11T02:41:29.911Z,17.50
2018-10-11T02:43:58.338Z,17.50
2018-10-11T02:46:26.933Z,17.50
2018-10-11T02:48:55.421Z,17.50
2018-10-11T02:51:26.682Z,17.50
2018-10-11T02:53:56.433Z,17.50
2018-10-11T02:56:25.254Z,17.50
2018-10-11T02:59:10.467Z,17.50
2018-10-11T03:01:39.080Z,17.50
2018-10-11T03:04:07.616Z,17.50
2018-10-11T03:06:37.322Z,17.50
2018-10-11T03:09:07.029Z,17.50
2018-10-11T03:11:35.751Z,17.50
2018-10-11T03:14:04.247Z,17.50
2018-10-11T03:16:34.320Z,17.50
2018-10-11T03:19:02.936Z,17.50
2018-10-11T03:21:31.484Z,17.50
2018-10-11T03:24:00.962Z,17.50
2018-10-11T03:26:29.760Z,17.50
2018-10-11T03:28:58.266Z,17.50
2018-10-11T03:31:26.678Z,17.50
2018-10-11T03:33:55.077Z,17.50
2018-10-11T03:36:28.533Z,17.50
2018-10-11T03:38:57.632Z,17.50
2018-10-11T03:41:26.762Z,17.50
2018-10-11T03:43:57.264Z,17.50
2018-10-11T03:46:25.757Z,17.50
2018-10-11T03:48:54.421Z,17.50
2018-10-11T03:51:23.179Z,17.50
2018-10-11T03:53:51.778Z,17.50
2018-10-11T03:56:21.374Z,17.50
2018-10-11T03:58:50.258Z,17.50
2018-10-11T04:01:18.677Z,17.50
2018-10-11T04:03:47.136Z,17.50
2018-10-11T04:06:16.477Z,17.50
2018-10-11T04:08:44.843Z,17.50
2018-10-11T04:11:13.199Z,17.50
2018-10-11T04:13:41.590Z,17.50
2018-10-11T04:16:12.305Z,17.50
2018-10-11T04:18:47.961Z,17.50
2018-10-11T04:21:16.329Z,17.50
2018-10-11T04:23:44.900Z,17.50
2018-10-11T04:26:13.293Z,17.50
2018-10-11T04:31:10.116Z,17.50
2018-10-11T04:33:41.141Z,17.50
2018-10-11T04:36:09.981Z,17.50
2018-10-11T04:38:38.377Z,17.50
2018-10-11T04:41:07.017Z,17.50
2018-10-11T04:43:35.484Z,17.50
2018-10-11T04:46:03.908Z,17.50
2018-10-11T04:48:32.345Z,17.50
2018-10-11T04:51:00.700Z,17.50
2018-10-11T04:53:34.468Z,17.50
2018-10-11T04:56:05.036Z,17.50
2018-10-11T04:58:34.214Z,17.50
2018-10-11T05:01:02.575Z,17.50
2018-10-11T05:03:30.933Z,17.50
2018-10-11T05:05:59.968Z,17.50
2018-10-11T05:08:28.333Z,17.50
2018-10-11T05:10:57.945Z,17.50
2018-10-11T05:13:35.650Z,17.50
2018-10-11T05:16:04.191Z,17.50
2018-10-11T05:18:32.818Z,17.50
2018-10-11T05:21:01.324Z,17.50
2018-10-11T05:23:29.706Z,17.50
2018-10-11T05:25:59.481Z,17.50
2018-10-11T05:28:29.953Z,17.50
2018-10-11T05:31:04.669Z,17.50
2018-10-11T05:33:33.195Z,17.40
2018-10-11T05:36:01.810Z,17.40
2018-10-11T05:38:30.331Z,17.50
2018-10-11T05:40:58.949Z,17.50
2018-10-11T05:43:27.790Z,17.50
2018-10-11T05:45:58.353Z,17.40
2018-10-11T05:48:29.109Z,17.40
2018-10-11T05:50:58.777Z,17.40
2018-10-11T05:53:27.813Z,17.40
2018-10-11T05:55:56.664Z,17.40
2018-10-11T05:58:28.796Z,17.50
2018-10-11T06:00:57.969Z,17.50
2018-10-11T06:03:26.325Z,17.50
2018-10-11T06:05:54.688Z,17.50
2018-10-11T06:08:28.276Z,17.50
2018-10-11T06:10:56.793Z,17.50
2018-10-11T06:13:28.690Z,17.50
2018-10-11T06:15:57.798Z,17.50
2018-10-11T06:18:27.813Z,17.50
2018-10-11T06:20:56.341Z,17.50
2018-10-11T06:23:25.952Z,17.50
2018-10-11T06:25:55.468Z,17.50
2018-10-11T06:28:23.974Z,17.50
2018-10-11T06:30:52.381Z,17.50
2018-10-11T06:33:21.009Z,17.50
2018-10-11T06:35:49.589Z,17.50
2018-10-11T06:38:17.996Z,17.50
2018-10-11T06:40:46.420Z,17.50
2018-10-11T06:43:15.309Z,17.50
2018-10-11T06:45:44.521Z,17.40
2018-10-11T06:48:13.497Z,17.40
2018-10-11T06:50:43.218Z,17.50
2018-10-11T06:53:11.916Z,17.50
2018-10-11T06:55:41.007Z,17.40
2018-10-11T06:58:09.520Z,17.40
2018-10-11T07:00:38.308Z,17.40
2018-10-11T07:03:07.088Z,17.50
2018-10-11T07:05:36.336Z,17.40
2018-10-11T07:08:07.217Z,17.40
2018-10-11T07:10:36.373Z,17.40
2018-10-11T07:13:05.785Z,17.40
2018-10-11T07:15:34.319Z,17.40
2018-10-11T07:18:04.329Z,17.50
2018-10-11T07:20:34.472Z,17.40
2018-10-11T07:23:03.754Z,17.40
2018-10-11T07:25:32.250Z,17.50
2018-10-11T07:28:05.156Z,17.40
2018-10-11T07:30:33.604Z,17.40
2018-10-11T07:33:02.077Z,17.40
2018-10-11T07:35:30.757Z,17.40
2018-10-11T07:37:59.180Z,17.40
2018-10-11T07:40:28.555Z,17.50
2018-10-11T07:42:57.762Z,17.40
2018-10-11T07:45:26.154Z,17.40
2018-10-11T07:47:56.221Z,17.40
2018-10-11T07:50:25.607Z,17.50
2018-10-11T07:52:56.363Z,17.40
2018-10-11T07:55:28.360Z,17.40
2018-10-11T07:57:58.789Z,17.40
2018-10-11T08:00:27.553Z,17.50
2018-10-11T08:02:56.054Z,17.50
2018-10-11T08:05:29.374Z,17.40
2018-10-11T08:07:58.614Z,17.50
2018-10-11T08:10:27.311Z,17.50
2018-10-11T08:12:57.365Z,17.50
2018-10-11T08:15:26.193Z,17.50
2018-10-11T08:17:55.004Z,17.50
2018-10-11T08:20:23.349Z,17.50
2018-10-11T08:22:51.696Z,17.50
2018-10-11T08:25:23.812Z,17.50
2018-10-11T08:27:52.228Z,17.50
2018-10-11T08:30:22.361Z,17.50
2018-10-11T08:32:50.788Z,17.50
2018-10-11T08:35:20.135Z,17.50
2018-10-11T08:37:50.128Z,17.50
2018-10-11T08:40:18.605Z,17.50
2018-10-11T08:42:48.060Z,17.50
2018-10-11T08:45:16.516Z,17.50
2018-10-11T08:47:45.364Z,17.50
2018-10-11T08:50:13.922Z,17.50
2018-10-11T08:52:44.901Z,17.50
2018-10-11T08:55:14.872Z,17.50
2018-10-11T08:57:43.242Z,17.50
2018-10-11T09:00:11.780Z,17.50
2018-10-11T09:02:41.233Z,17.50
2018-10-11T09:05:09.763Z,17.50
2018-10-11T09:07:38.696Z,17.50
2018-10-11T09:10:07.046Z,17.50
2018-10-11T09:12:35.450Z,17.50
2018-10-11T09:15:04.176Z,17.50
2018-10-11T09:17:32.764Z,17.50
2018-10-11T09:20:04.814Z,17.50
2018-10-11T09:22:34.473Z,17.50
2018-10-11T09:25:03.271Z,17.50
2018-10-11T09:27:31.801Z,17.50
2018-10-11T09:30:00.471Z,17.50
2018-10-11T09:32:29.081Z,17.50
2018-10-11T09:34:57.536Z,17.50
2018-10-11T09:37:26.008Z,17.50
2018-10-11T09:39:54.667Z,17.50
2018-10-11T09:42:26.810Z,17.50
2018-10-11T09:44:55.441Z,17.60
2018-10-11T09:47:30.017Z,17.50
2018-10-11T09:49:58.630Z,17.60
2018-10-11T09:52:33.781Z,17.60
2018-10-11T09:55:02.137Z,17.60
2018-10-11T09:57:32.459Z,17.60
2018-10-11T10:00:02.237Z,17.60
2018-10-11T10:02:31.081Z,17.60
2018-10-11T10:05:01.708Z,17.60
2018-10-11T10:07:30.904Z,17.60
2018-10-11T10:10:05.770Z,17.60
2018-10-11T10:12:35.836Z,17.60
2018-10-11T10:15:05.048Z,17.60
2018-10-11T10:17:34.885Z,17.60
2018-10-11T10:20:03.487Z,17.60
2018-10-11T10:22:31.948Z,17.60
2018-10-11T10:25:02.242Z,17.60
2018-10-11T10:27:31.561Z,17.60
2018-10-11T10:30:04.695Z,17.60
2018-10-11T10:32:35.389Z,17.60
2018-10-11T10:35:03.762Z,17.60
2018-10-11T10:37:34.636Z,17.60
2018-10-11T10:40:03.668Z,17.60
2018-10-11T10:42:32.098Z,17.60
2018-10-11T10:45:03.856Z,17.60
2018-10-11T10:47:34.489Z,17.60
2018-10-11T10:50:04.506Z,17.70
2018-10-11T10:52:34.784Z,17.70
2018-10-11T10:55:03.574Z,17.70
2018-10-11T10:57:33.137Z,17.70
2018-10-11T11:00:05.218Z,17.70
2018-10-11T11:02:33.777Z,17.70
2018-10-11T11:05:02.349Z,17.70
2018-10-11T11:07:31.595Z,17.70
2018-10-11T11:09:59.976Z,17.70
2018-10-11T11:12:28.560Z,17.70
2018-10-11T11:14:57.018Z,17.70
2018-10-11T11:17:27.305Z,17.70
2018-10-11T11:19:55.820Z,17.70
2018-10-11T11:22:29.064Z,17.80
2018-10-11T11:24:57.732Z,17.80
2018-10-11T11:27:26.848Z,17.80
2018-10-11T11:29:55.188Z,17.80
2018-10-11T11:32:23.676Z,17.80
2018-10-11T11:34:52.062Z,17.80
2018-10-11T11:37:20.500Z,17.80
2018-10-11T11:39:49.644Z,17.80
2018-10-11T11:42:18.036Z,17.80
2018-10-11T11:44:46.387Z,17.80
2018-10-11T11:47:15.072Z,17.80
2018-10-11T11:49:46.740Z,17.80
2018-10-11T11:52:15.147Z,17.80
2018-10-11T11:54:43.541Z,17.80
2018-10-11T11:57:11.940Z,17.80
2018-10-11T11:59:40.677Z,17.80
2018-10-11T12:02:09.694Z,17.80
2018-10-11T12:04:38.016Z,17.80
2018-10-11T12:07:09.388Z,17.80
2018-10-11T12:09:37.961Z,17.80
2018-10-11T12:12:07.551Z,17.80
2018-10-11T12:14:37.835Z,17.90
2018-10-11T12:17:06.712Z,17.90
2018-10-11T12:19:35.234Z,17.90
2018-10-11T12:22:03.744Z,17.90
2018-10-11T12:24:34.110Z,17.90
2018-10-11T12:27:02.602Z,17.90
2018-10-11T12:29:31.028Z,17.90
2018-10-11T12:31:59.568Z,17.90
2018-10-11T12:34:28.196Z,17.90
2018-10-11T12:36:56.701Z,17.90
2018-10-11T12:39:26.497Z,17.90
2018-10-11T12:41:55.049Z,17.90
2018-10-11T12:44:23.522Z,17.90
2018-10-11T12:46:54.547Z,17.90
2018-10-11T12:49:23.534Z,17.90
2018-10-11T12:51:52.045Z,17.90
2018-10-11T12:54:22.677Z,17.90
2018-10-11T12:56:51.720Z,17.90
2018-10-11T12:59:20.060Z,18.00
2018-10-11T13:01:48.857Z,17.90
2018-10-11T13:04:22.685Z,18.00
2018-10-11T13:06:51.971Z,18.00
2018-10-11T13:09:20.510Z,18.00
2018-10-11T13:11:49.021Z,18.00
2018-10-11T13:14:22.784Z,18.00
2018-10-11T13:16:51.945Z,18.00
2018-10-11T13:19:20.684Z,18.00
2018-10-11T13:21:49.492Z,18.00
2018-10-11T13:24:18.072Z,18.00
2018-10-11T13:26:49.684Z,18.00
2018-10-11T13:29:24.205Z,18.00
2018-10-11T13:31:54.225Z,18.00
2018-10-11T13:34:22.697Z,18.00
2018-10-11T13:36:51.701Z,18.00
2018-10-11T13:39:21.157Z,18.00
2018-10-11T13:41:48.870Z,18.00
2018-10-11T13:44:17.337Z,18.00
2018-10-11T13:46:46.701Z,18.00
2018-10-11T13:49:22.114Z,18.00
2018-10-11T13:51:51.043Z,18.00
2018-10-11T13:54:20.274Z,18.00
2018-10-11T13:56:53.878Z,18.00
2018-10-11T13:59:22.845Z,18.00
2018-10-11T14:01:51.502Z,18.00
2018-10-11T14:04:19.997Z,18.00
2018-10-11T14:06:48.866Z,18.00
2018-10-11T14:09:17.330Z,18.00
2018-10-11T14:11:46.589Z,18.00
2018-10-11T14:14:17.420Z,18.00
2018-10-11T14:16:45.909Z,18.00
2018-10-11T14:19:15.038Z,18.00
2018-10-11T14:24:12.774Z,18.10
2018-10-11T14:26:41.152Z,18.00
2018-10-11T14:29:09.515Z,18.00
2018-10-11T14:31:38.806Z,18.00
2018-10-11T14:34:08.964Z,18.00
2018-10-11T14:36:37.750Z,18.10
2018-10-11T14:41:35.977Z,18.00
2018-10-11T14:44:05.556Z,18.00
2018-10-11T14:46:33.977Z,18.00
2018-10-11T14:49:04.076Z,18.00
2018-10-11T14:51:32.488Z,18.10
2018-10-11T14:54:01.860Z,18.00
2018-10-11T14:56:30.435Z,18.10
2018-10-11T14:58:58.872Z,18.10
2018-10-11T15:01:29.613Z,18.10
2018-10-11T15:03:58.726Z,18.10
2018-10-11T15:06:27.338Z,18.10
2018-10-11T15:08:55.933Z,18.10
2018-10-11T15:11:25.374Z,18.10
2018-10-11T15:13:53.721Z,18.10
2018-10-11T15:16:23.151Z,18.10
2018-10-11T15:18:51.728Z,18.10
2018-10-11T15:21:20.253Z,18.10
2018-10-11T15:23:51.498Z,18.10
2018-10-11T15:26:21.882Z,18.10
2018-10-11T15:28:50.613Z,18.10
2018-10-11T15:31:22.771Z,18.10
2018-10-11T15:33:51.581Z,18.10
2018-10-11T15:36:20.505Z,18.10
2018-10-11T15:38:53.285Z,18.10
2018-10-11T15:41:22.457Z,18.10
2018-10-11T15:43:51.052Z,18.10
2018-10-11T15:46:19.449Z,18.10
2018-10-11T15:48:48.697Z,18.10
2018-10-11T15:53:45.719Z,18.10
2018-10-11T15:56:14.646Z,18.10
2018-10-11T15:58:43.705Z,18.10
2018-10-11T16:01:12.222Z,18.10
2018-10-11T16:03:40.761Z,18.10
2018-10-11T16:06:10.406Z,18.10
2018-10-11T16:08:40.320Z,18.10
2018-10-11T16:11:10.757Z,18.10
2018-10-11T16:13:39.517Z,18.10
2018-10-11T16:16:08.058Z,18.10
2018-10-11T16:18:36.630Z,18.10
2018-10-11T16:21:05.174Z,18.10
2018-10-11T16:23:33.837Z,18.10
2018-10-11T16:26:02.694Z,18.10
2018-10-11T16:28:33.000Z,18.10
2018-10-11T16:31:01.473Z,18.10
2018-10-11T16:33:29.822Z,18.10
2018-10-11T16:35:58.186Z,18.10
2018-10-11T16:38:27.810Z,18.10
2018-10-11T16:40:56.349Z,18.10
2018-10-11T16:43:26.976Z,18.10
2018-10-11T16:45:55.669Z,18.10
2018-10-11T16:48:24.144Z,18.10
2018-10-11T16:50:53.513Z,18.10
2018-10-11T16:53:21.920Z,18.10
2018-10-11T16:55:51.110Z,18.10
2018-10-11T16:58:20.913Z,18.10
2018-10-11T17:00:49.506Z,18.10
2018-10-11T17:03:20.010Z,18.10
2018-10-11T17:05:48.716Z,18.10
2018-10-11T17:08:17.796Z,18.10
2018-10-11T17:10:46.204Z,18.10
2018-10-11T17:13:14.551Z,18.10
2018-10-11T17:15:42.965Z,18.10
2018-10-11T17:18:17.061Z,18.10
2018-10-11T17:20:45.449Z,18.10
2018-10-11T17:23:16.828Z,18.10
2018-10-11T17:25:45.429Z,18.10
2018-10-11T17:28:13.809Z,18.10
2018-10-11T17:30:44.672Z,18.10
2018-10-11T17:35:41.736Z,18.10
2018-10-11T17:38:10.113Z,18.10
2018-10-11T17:40:38.616Z,18.10
2018-10-11T17:43:08.078Z,18.10
2018-10-11T17:45:37.675Z,18.10
2018-10-11T17:48:13.810Z,18.10
2018-10-11T17:50:42.377Z,18.10
2018-10-11T17:53:10.979Z,18.10
2018-10-11T17:55:39.944Z,18.10
2018-10-11T17:58:08.329Z,18.10
2018-10-11T18:00:36.760Z,18.10
2018-10-11T18:03:05.236Z,18.10
2018-10-11T18:05:33.702Z,18.10
2018-10-11T18:08:02.344Z,18.10
2018-10-11T18:10:30.757Z,18.10
2018-10-11T18:13:04.841Z,18.10
2018-10-11T18:15:33.183Z,18.10
2018-10-11T18:18:01.726Z,18.10
2018-10-11T18:20:35.221Z,18.10
2018-10-11T18:23:04.029Z,18.10
2018-10-11T18:25:32.381Z,18.10
2018-10-11T18:28:00.868Z,18.10
2018-10-11T18:30:29.362Z,18.10
2018-10-11T18:32:57.949Z,18.10
2018-10-11T18:35:26.750Z,18.10
2018-10-11T18:37:55.332Z,18.10
2018-10-11T18:40:23.808Z,18.10
2018-10-11T18:42:52.149Z,18.00
2018-10-11T18:45:20.661Z,18.10
2018-10-11T18:47:49.280Z,18.10
2018-10-11T18:50:18.397Z,18.10
2018-10-11T18:52:52.768Z,18.00
2018-10-11T18:55:21.674Z,18.10
2018-10-11T18:57:51.708Z,18.00
2018-10-11T19:00:19.989Z,18.00
2018-10-11T19:05:22.894Z,18.10
2018-10-11T19:07:52.032Z,18.00
2018-10-11T19:10:20.389Z,18.00
2018-10-11T19:12:49.325Z,18.00
2018-10-11T19:15:22.765Z,18.10
2018-10-11T19:17:51.096Z,18.10
2018-10-11T19:20:19.452Z,18.10
2018-10-11T19:22:48.143Z,18.10
2018-10-11T19:25:17.986Z,18.10
2018-10-11T19:27:49.262Z,18.10
2018-10-11T19:30:29.725Z,18.00
2018-10-11T19:32:59.044Z,18.10
2018-10-11T19:35:27.564Z,18.00
2018-10-11T19:37:55.895Z,18.00
2018-10-11T19:40:24.945Z,18.00
2018-10-11T19:42:54.462Z,18.00
2018-10-11T19:45:23.236Z,18.00
2018-10-11T19:47:51.585Z,18.00
2018-10-11T19:50:20.232Z,18.00
2018-10-11T19:52:48.928Z,18.00
2018-10-11T19:55:23.476Z,18.00
2018-10-11T19:57:53.884Z,18.00
2018-10-11T20:00:22.227Z,18.00
2018-10-11T20:02:53.442Z,18.00
2018-10-11T20:05:22.304Z,18.00
2018-10-11T20:07:50.692Z,18.00
2018-10-11T20:10:23.236Z,18.00
2018-10-11T20:12:54.379Z,18.00
2018-10-11T20:15:23.553Z,18.00
2018-10-11T20:17:53.992Z,18.00
2018-10-11T20:20:22.654Z,18.00
2018-10-11T20:22:51.054Z,18.00
2018-10-11T20:25:20.606Z,18.00
2018-10-11T20:27:50.961Z,18.00
2018-10-11T20:30:19.455Z,18.00
2018-10-11T20:32:48.123Z,18.00
2018-10-11T20:35:17.105Z,18.00
2018-10-11T20:37:45.548Z,18.00
2018-10-11T20:40:14.936Z,18.00
2018-10-11T20:42:48.427Z,18.00
2018-10-11T20:45:16.765Z,18.00
2018-10-11T20:47:45.121Z,18.00
2018-10-11T20:50:14.638Z,18.00
2018-10-11T20:52:43.002Z,18.00
2018-10-11T20:55:11.777Z,18.00
2018-10-11T20:57:40.177Z,18.00
2018-10-11T21:00:10.254Z,18.00
2018-10-11T21:02:41.029Z,18.00
2018-10-11T21:05:09.547Z,18.00
2018-10-11T21:07:39.640Z,18.00
2018-10-11T21:10:08.241Z,18.00
2018-10-11T21:12:36.744Z,18.00
2018-10-11T21:15:05.254Z,18.00
2018-10-11T21:17:33.728Z,18.00
2018-10-11T21:20:02.144Z,18.00
2018-10-11T21:22:30.488Z,18.00
2018-10-11T21:24:58.831Z,18.00
2018-10-11T21:27:27.213Z,18.00
2018-10-11T21:29:55.769Z,18.00
2018-10-11T21:32:24.969Z,18.00
2018-10-11T21:34:53.593Z,18.00
2018-10-11T21:37:22.333Z,18.00
2018-10-11T21:39:52.293Z,18.00
2018-10-11T21:42:21.037Z,18.00
2018-10-11T21:44:49.478Z,18.00
2018-10-11T21:47:18.013Z,18.00
2018-10-11T21:49:46.554Z,18.00
2018-10-11T21:52:15.001Z,18.00
2018-10-11T21:54:43.385Z,18.00
2018-10-11T21:57:12.689Z,18.00
2018-10-11T21:59:41.285Z,18.00
2018-10-11T22:02:09.985Z,18.00
2018-10-11T22:04:40.262Z,18.00
2018-10-11T22:07:09.256Z,18.00
2018-10-11T22:09:37.980Z,18.00
2018-10-11T22:12:11.305Z,18.00
2018-10-11T22:14:40.939Z,18.00
2018-10-11T22:17:09.369Z,18.00
2018-10-11T22:19:38.839Z,18.00
2018-10-11T22:22:07.357Z,18.00
2018-10-11T22:24:45.178Z,18.00
2018-10-11T22:27:13.641Z,18.00
2018-10-11T22:29:42.177Z,18.00
2018-10-11T22:32:10.768Z,18.00
2018-10-11T22:34:40.565Z,18.00
2018-10-11T22:37:09.211Z,18.00
2018-10-11T22:39:37.505Z,18.00
2018-10-11T22:42:06.268Z,18.00
2018-10-11T22:44:34.733Z,18.00
2018-10-11T22:47:03.233Z,18.00
2018-10-11T22:49:35.100Z,18.00
2018-10-11T22:52:10.274Z,18.00
2018-10-11T22:54:38.751Z,18.00
2018-10-11T22:57:07.305Z,18.00
2018-10-11T22:59:36.544Z,18.00
2018-10-11T23:02:05.145Z,18.00
2018-10-11T23:04:33.669Z,18.00
2018-10-11T23:07:02.137Z,18.00
2018-10-11T23:09:32.108Z,18.00
2018-10-11T23:12:02.033Z,18.00
2018-10-11T23:14:30.733Z,18.00
2018-10-11T23:16:59.581Z,18.00
2018-10-11T23:19:28.237Z,18.00
2018-10-11T23:21:56.977Z,18.00
2018-10-11T23:24:26.029Z,18.00
2018-10-11T23:26:56.705Z,18.00
2018-10-11T23:29:25.241Z,18.00
2018-10-11T23:31:59.016Z,18.00
2018-10-11T23:34:28.077Z,18.00
2018-10-11T23:36:56.619Z,18.00
2018-10-11T23:39:27.489Z,18.00
2018-10-11T23:41:58.240Z,18.00
2018-10-11T23:44:29.200Z,18.00
2018-10-11T23:46:57.693Z,18.00
2018-10-11T23:49:26.688Z,18.00
2018-10-11T23:51:55.276Z,18.00
2018-10-11T23:54:24.090Z,18.00
2018-10-11T23:56:52.676Z,18.00
2018-10-11T23:59:21.137Z,18.00
